Time;durP1;ratioP1;P1;durP2;ratioP2;P2;SDS_P1;SDS_P2;PMS_P1;PMS_P2;Temp;Humidity;BMP_temperature;BMP_pressure;BME280_temperature;BME280_humidity;BME280_pressure;Samples;Min_cycle;Max_cycle;Signal;HPM_P1;HPM_P2
2022/12/22 03:25:52;;;;;;;1.17;1.07;;;18.90;38.90;;;;;;5017616;28;21339;-65
2022/12/22 03:28:19;;;;;;;2.17;1.20;;;18.90;38.90;;;;;;5018850;28;20544;-64
2022/12/22 03:30:44;;;;;;;1.37;1.27;;;18.90;38.90;;;;;;5019925;28;20439;-64
2022/12/22 03:33:10;;;;;;;1.30;1.20;;;18.90;38.90;;;;;;5017662;28;20439;-64
2022/12/22 03:35:35;;;;;;;1.30;1.20;;;18.90;38.90;;;;;;5022694;28;20239;-64
2022/12/22 03:38:02;;;;;;;1.30;1.20;;;18.90;38.90;;;;;;5016838;28;20686;-64
2022/12/22 03:40:29;;;;;;;1.50;1.40;;;18.90;38.90;;;;;;5017616;28;20292;-64
2022/12/22 03:48:23;;;;;;;1.30;1.20;;;18.90;38.90;;;;;;5019235;28;20518;-64
2022/12/22 03:50:49;;;;;;;1.57;1.47;;;18.90;38.90;;;;;;5018645;28;20435;-64
2022/12/22 03:53:14;;;;;;;1.57;1.43;;;18.90;38.90;;;;;;5017040;28;20222;-64
2022/12/22 03:55:40;;;;;;;1.30;1.20;;;18.90;38.80;;;;;;5018683;28;23482;-64
2022/12/22 03:58:05;;;;;;;1.40;1.30;;;18.90;38.90;;;;;;5020377;28;20214;-64
2022/12/22 04:00:31;;;;;;;1.37;1.27;;;18.90;38.90;;;;;;5022548;28;20681;-64
2022/12/22 04:02:57;;;;;;;1.40;1.30;;;18.90;38.90;;;;;;5019566;28;20234;-64
2022/12/22 04:05:23;;;;;;;1.53;1.43;;;18.90;38.90;;;;;;5019449;28;21082;-65
2022/12/22 04:07:49;;;;;;;1.30;1.20;;;18.90;39.00;;;;;;5017030;28;20422;-64
2022/12/22 04:13:00;;;;;;;1.30;1.20;;;18.90;38.90;;;;;;4955674;28;20237;-64
2022/12/22 04:15:28;;;;;;;1.37;1.27;;;18.90;38.90;;;;;;5019018;28;20922;-64
2022/12/22 04:17:54;;;;;;;1.43;1.33;;;18.90;38.90;;;;;;5023276;28;20652;-64
2022/12/22 04:20:21;;;;;;;1.30;1.20;;;18.90;39.00;;;;;;5024112;28;20549;-64
2022/12/22 04:22:47;;;;;;;1.37;1.27;;;18.90;39.00;;;;;;5024581;28;20432;-64
2022/12/22 04:25:13;;;;;;;1.37;1.27;;;18.90;39.00;;;;;;5024597;28;20750;-65
2022/12/22 04:27:39;;;;;;;1.10;1.00;;;18.90;39.00;;;;;;5023484;28;20228;-64
2022/12/22 04:30:07;;;;;;;1.50;1.40;;;18.90;39.00;;;;;;5024155;28;20466;-64
2022/12/22 04:32:33;;;;;;;1.63;1.53;;;18.90;39.00;;;;;;5028679;28;20674;-64
2022/12/22 04:34:59;;;;;;;1.40;1.30;;;18.90;38.90;;;;;;5025723;28;20476;-64
2022/12/22 04:37:24;;;;;;;1.10;1.03;;;18.90;39.00;;;;;;5027905;28;20852;-64
2022/12/22 04:39:50;;;;;;;1.20;1.10;;;18.90;39.00;;;;;;5026223;28;20221;-64
2022/12/22 04:42:15;;;;;;;1.40;1.30;;;18.90;39.00;;;;;;5026408;28;20219;-64
2022/12/22 04:44:41;;;;;;;1.20;1.10;;;18.90;39.00;;;;;;5026798;28;20214;-64
2022/12/22 04:47:06;;;;;;;1.37;1.27;;;18.90;39.00;;;;;;5024938;28;20344;-65
2022/12/22 04:49:32;;;;;;;1.37;1.27;;;18.90;39.00;;;;;;5024271;28;20590;-64
2022/12/22 04:51:57;;;;;;;1.33;1.23;;;18.90;38.90;;;;;;5023953;28;20275;-64
2022/12/22 04:54:23;;;;;;;1.30;1.20;;;18.90;38.90;;;;;;5023351;28;20283;-64
2022/12/22 04:56:49;;;;;;;1.40;1.30;;;18.90;38.90;;;;;;5009795;28;20878;-64
2022/12/22 04:59:15;;;;;;;1.30;1.20;;;18.90;38.90;;;;;;5020953;28;20246;-64
2022/12/22 05:01:40;;;;;;;1.10;1.00;;;18.90;38.80;;;;;;5020519;28;20430;-64
2022/12/22 05:04:06;;;;;;;1.63;1.30;;;18.90;38.80;;;;;;5019315;28;20223;-65
2022/12/22 05:06:31;;;;;;;1.63;1.53;;;19.00;38.90;;;;;;5017805;28;20265;-64
2022/12/22 05:08:57;;;;;;;1.33;1.20;;;19.00;38.90;;;;;;5017985;28;20307;-64
2022/12/22 05:11:22;;;;;;;1.50;1.40;;;19.00;38.90;;;;;;5022378;28;20233;-62
2022/12/22 05:13:48;;;;;;;1.40;1.30;;;19.00;38.90;;;;;;5017796;28;20242;-64
2022/12/22 05:16:15;;;;;;;1.37;1.27;;;19.00;38.90;;;;;;5018478;28;20238;-65
2022/12/22 05:18:42;;;;;;;1.63;1.53;;;19.00;38.90;;;;;;5020554;28;20276;-65
2022/12/22 05:21:21;;;;;;;1.10;1.00;;;19.00;38.80;;;;;;5020574;28;20443;-65
2022/12/22 05:23:48;;;;;;;1.27;1.17;;;19.00;38.70;;;;;;5019112;28;21034;-65
2022/12/22 05:26:14;;;;;;;1.50;1.40;;;19.10;38.70;;;;;;5021600;28;20896;-66
2022/12/22 05:28:41;;;;;;;1.43;1.33;;;19.10;38.70;;;;;;5015206;28;20430;-66
2022/12/22 05:31:10;;;;;;;1.20;1.10;;;19.10;38.60;;;;;;5015180;28;20441;-65
2022/12/22 05:33:35;;;;;;;1.30;1.20;;;19.10;38.50;;;;;;5015523;28;20460;-65
2022/12/22 05:36:01;;;;;;;1.40;1.30;;;19.10;38.50;;;;;;5020394;28;20434;-65
2022/12/22 05:38:27;;;;;;;1.40;1.30;;;19.10;38.40;;;;;;5015978;28;20655;-65
2022/12/22 05:40:53;;;;;;;1.20;1.10;;;19.20;38.50;;;;;;5012069;28;20499;-65
2022/12/22 05:43:18;;;;;;;1.60;1.50;;;19.10;38.40;;;;;;5012421;28;20438;-62
2022/12/22 05:45:45;;;;;;;1.20;1.10;;;19.10;38.40;;;;;;5009913;28;20284;-61
2022/12/22 05:48:10;;;;;;;1.30;1.20;;;19.10;38.40;;;;;;5009642;28;20241;-62
2022/12/22 05:50:36;;;;;;;1.27;1.17;;;19.10;38.40;;;;;;5007630;28;20455;-62
2022/12/22 05:53:02;;;;;;;1.20;1.10;;;19.10;38.40;;;;;;5005347;28;20226;-61
2022/12/22 05:55:27;;;;;;;1.30;1.20;;;19.20;38.50;;;;;;5007127;28;20662;-62
2022/12/22 05:57:53;;;;;;;1.83;1.53;;;19.10;38.40;;;;;;5010884;28;20226;-61
2022/12/22 06:00:19;;;;;;;1.30;1.20;;;19.10;38.40;;;;;;5011453;28;20706;-61
2022/12/22 06:02:45;;;;;;;1.40;1.30;;;19.10;38.50;;;;;;5004792;28;20219;-62
2022/12/22 06:05:12;;;;;;;1.70;1.33;;;19.10;38.50;;;;;;5012632;28;20459;-63
2022/12/22 06:07:38;;;;;;;4.33;1.20;;;19.10;38.50;;;;;;5012957;28;20225;-63
2022/12/22 06:10:05;;;;;;;1.30;1.20;;;19.10;38.50;;;;;;5007557;28;22960;-63
2022/12/22 06:12:31;;;;;;;1.30;1.20;;;19.10;38.40;;;;;;5010000;28;20223;-63
2022/12/22 06:14:56;;;;;;;1.13;1.03;;;19.20;38.70;;;;;;5007817;28;20465;-62
2022/12/22 06:17:22;;;;;;;1.40;1.30;;;19.20;38.70;;;;;;5011799;28;20206;-61
2022/12/22 06:19:47;;;;;;;1.40;1.30;;;19.10;38.60;;;;;;4984393;28;20521;-65
2022/12/22 06:22:13;;;;;;;1.70;1.50;;;19.10;38.60;;;;;;4964176;28;20233;-64
2022/12/22 06:24:38;;;;;;;1.17;1.07;;;19.10;38.80;;;;;;5002607;28;20219;-63
2022/12/22 06:27:04;;;;;;;1.30;1.10;;;19.10;38.60;;;;;;5004697;28;20690;-64
2022/12/22 06:29:29;;;;;;;2.70;1.20;;;19.10;38.60;;;;;;5007733;28;20215;-62
2022/12/22 06:31:55;;;;;;;1.40;1.30;;;19.10;38.70;;;;;;5003663;28;20230;-63
2022/12/22 06:34:21;;;;;;;1.53;1.43;;;19.10;38.60;;;;;;5011528;28;20226;-63
2022/12/22 06:36:47;;;;;;;1.87;1.33;;;19.10;38.70;;;;;;5013222;28;20246;-63
2022/12/22 06:39:14;;;;;;;1.40;1.20;;;19.10;38.70;;;;;;5012590;28;20222;-63
2022/12/22 06:44:24;;;;;;;1.73;1.63;;;19.10;38.70;;;;;;5018245;28;20482;-63
2022/12/22 06:46:49;;;;;;;1.07;0.97;;;19.10;38.80;;;;;;5022414;28;20482;-63
2022/12/22 06:49:15;;;;;;;1.83;1.40;;;19.10;38.70;;;;;;5023846;28;20199;-63
2022/12/22 06:51:41;;;;;;;1.33;1.23;;;19.10;38.70;;;;;;5022209;28;20195;-63
2022/12/22 06:54:07;;;;;;;1.30;1.20;;;19.10;38.80;;;;;;5023321;28;20202;-63
2022/12/22 06:56:32;;;;;;;1.23;1.13;;;19.10;38.80;;;;;;5023596;28;20460;-63
2022/12/22 06:58:58;;;;;;;1.30;1.20;;;19.10;38.80;;;;;;5022401;28;20214;-63
2022/12/22 07:01:24;;;;;;;1.07;0.97;;;19.10;38.80;;;;;;5025170;28;20597;-63
2022/12/22 07:03:49;;;;;;;1.30;1.20;;;19.10;38.80;;;;;;5019674;28;20183;-63
2022/12/22 07:06:17;;;;;;;1.10;1.00;;;19.10;38.80;;;;;;5023566;28;20200;-62
2022/12/22 07:08:43;;;;;;;1.70;1.13;;;19.10;38.90;;;;;;5022170;28;20183;-63
2022/12/22 09:27:11;;;;;;;48.50;29.03;;;19.00;39.40;;;;;;5010585;28;20851;-65
2022/12/22 09:29:39;;;;;;;42.53;23.57;;;19.00;39.50;;;;;;5009836;28;20940;-66
2022/12/22 09:32:04;;;;;;;51.77;24.50;;;19.00;39.50;;;;;;5018176;28;20273;-65
2022/12/22 09:34:30;;;;;;;46.37;24.23;;;19.10;39.50;;;;;;5007725;28;20415;-66
2022/12/22 09:36:55;;;;;;;41.27;21.20;;;19.10;39.40;;;;;;5015464;28;20284;-65
2022/12/22 09:39:21;;;;;;;37.27;22.27;;;19.10;39.40;;;;;;5019743;28;20277;-65
2022/12/22 09:41:55;;;;;;;39.43;22.83;;;19.10;39.50;;;;;;5019205;28;20232;-65
2022/12/22 09:44:25;;;;;;;40.50;23.07;;;19.10;39.40;;;;;;5009781;28;20222;-66
2022/12/22 09:46:52;;;;;;;37.90;20.93;;;19.10;39.40;;;;;;5009538;28;20456;-65
2022/12/22 09:49:19;;;;;;;35.27;20.20;;;19.10;39.40;;;;;;5016696;28;20438;-65
2022/12/22 09:51:51;;;;;;;36.63;20.73;;;19.10;39.40;;;;;;5015499;28;20414;-65
2022/12/22 09:54:17;;;;;;;33.00;19.80;;;19.10;39.40;;;;;;5007943;28;20439;-65
2022/12/22 09:56:43;;;;;;;36.40;20.40;;;19.10;39.40;;;;;;5012344;28;20478;-65
2022/12/22 09:59:11;;;;;;;32.27;18.33;;;19.10;39.40;;;;;;5011746;28;20925;-62
2022/12/22 10:01:40;;;;;;;30.97;20.33;;;19.10;39.40;;;;;;5007821;28;20250;-62
2022/12/22 10:04:27;;;;;;;30.10;18.50;;;19.10;39.40;;;;;;5005252;28;22223;-62
2022/12/22 10:07:26;;;;;;;31.13;18.80;;;19.10;39.40;;;;;;5008524;28;20450;-62
2022/12/22 10:09:52;;;;;;;30.87;17.40;;;19.10;39.40;;;;;;5006406;28;20471;-62
2022/12/22 10:12:21;;;;;;;30.13;16.47;;;19.10;39.50;;;;;;5011844;28;20784;-62
2022/12/22 10:14:49;;;;;;;27.20;17.10;;;19.10;39.50;;;;;;5010673;28;20246;-62
2022/12/22 10:17:22;;;;;;;29.50;17.43;;;19.10;39.50;;;;;;5011844;28;20546;-62
2022/12/22 10:19:50;;;;;;;25.50;15.33;;;19.10;39.50;;;;;;5010303;28;20607;-64
2022/12/22 10:22:32;;;;;;;25.43;14.73;;;19.10;39.50;;;;;;5008881;28;20435;-64
2022/12/22 10:25:02;;;;;;;25.23;14.10;;;19.10;39.50;;;;;;5008095;28;20559;-63
2022/12/22 10:27:34;;;;;;;28.80;15.40;;;19.10;39.50;;;;;;5009173;28;20919;-62
2022/12/22 10:30:22;;;;;;;24.93;13.20;;;19.10;39.50;;;;;;5009027;28;20456;-62
2022/12/22 10:33:11;;;;;;;20.80;13.27;;;19.10;39.60;;;;;;4990630;28;20535;-62
2022/12/22 10:35:56;;;;;;;17.77;11.67;;;19.10;39.50;;;;;;5011770;28;20496;-62
2022/12/22 10:38:38;;;;;;;23.67;13.30;;;19.10;39.50;;;;;;5004035;28;21006;-62
2022/12/22 10:41:15;;;;;;;20.00;12.03;;;19.10;39.50;;;;;;5008987;28;20587;-62
2022/12/22 10:43:55;;;;;;;18.53;11.70;;;19.10;39.50;;;;;;5007643;28;20525;-62
2022/12/22 10:46:45;;;;;;;18.93;11.30;;;19.10;39.50;;;;;;5010618;28;20432;-62
2022/12/22 10:49:17;;;;;;;13.93;10.00;;;19.10;39.50;;;;;;5007277;28;20452;-64
2022/12/22 10:51:46;;;;;;;17.10;10.37;;;19.10;39.50;;;;;;5008985;28;20468;-62
2022/12/22 10:54:30;;;;;;;10.87;8.93;;;19.10;39.50;;;;;;5005307;28;20755;-63
2022/12/22 10:57:01;;;;;;;13.67;9.47;;;19.10;39.50;;;;;;5005714;28;20842;-62
2022/12/22 10:59:27;;;;;;;13.27;9.93;;;19.10;39.60;;;;;;5004339;28;20963;-62
2022/12/22 11:01:52;;;;;;;12.70;8.70;;;19.10;39.60;;;;;;5007274;28;20441;-63
2022/12/22 11:04:24;;;;;;;11.87;8.37;;;19.10;39.60;;;;;;5005442;28;20718;-62
2022/12/22 11:06:51;;;;;;;11.20;8.90;;;19.10;39.60;;;;;;5010136;28;20222;-62
2022/12/22 11:09:17;;;;;;;10.07;8.30;;;19.20;39.60;;;;;;4989274;28;20509;-63
2022/12/22 11:11:51;;;;;;;11.00;7.20;;;19.10;39.60;;;;;;5006382;28;20539;-63
2022/12/22 11:14:41;;;;;;;13.03;8.47;;;19.10;39.60;;;;;;5003835;28;20227;-65
2022/12/22 11:17:16;;;;;;;10.50;7.10;;;19.10;39.60;;;;;;5009486;28;21112;-67
2022/12/22 11:19:47;;;;;;;9.70;7.47;;;19.10;39.50;;;;;;5009877;28;20462;-66
2022/12/22 11:22:36;;;;;;;10.53;6.67;;;19.10;39.50;;;;;;5009606;28;20447;-67
2022/12/22 11:25:10;;;;;;;8.50;6.57;;;19.20;39.60;;;;;;5010984;28;20984;-69
2022/12/22 11:28:10;;;;;;;7.57;6.20;;;19.10;39.60;;;;;;5015268;28;20451;-69
2022/12/22 11:30:43;;;;;;;6.50;5.90;;;19.10;39.50;;;;;;4993802;28;20855;-69
2022/12/22 11:33:29;;;;;;;8.73;6.10;;;19.10;39.60;;;;;;5013276;28;20471;-69
2022/12/22 11:36:23;;;;;;;9.60;5.60;;;19.10;39.50;;;;;;5010124;28;20949;-67
2022/12/22 11:39:03;;;;;;;8.60;6.17;;;19.10;39.60;;;;;;4973654;28;20956;-67
2022/12/22 11:41:42;;;;;;;6.10;5.33;;;19.10;39.50;;;;;;5007836;28;20457;-67
2022/12/22 11:44:27;;;;;;;5.77;5.13;;;19.10;39.60;;;;;;5008511;28;20981;-67
2022/12/22 11:47:07;;;;;;;7.30;5.47;;;19.10;39.50;;;;;;5010757;28;20775;-67
2022/12/22 11:50:08;;;;;;;6.07;5.50;;;19.20;39.60;;;;;;5009602;28;20513;-68
2022/12/22 11:52:54;;;;;;;7.10;5.07;;;19.20;39.60;;;;;;5005957;28;20487;-68
2022/12/22 11:55:26;;;;;;;4.73;4.33;;;19.10;39.50;;;;;;5006457;28;20475;-68
2022/12/22 11:58:12;;;;;;;5.77;5.20;;;19.20;39.70;;;;;;5013443;28;20475;-67
2022/12/22 12:01:27;;;;;;;4.73;4.33;;;19.20;39.70;;;;;;5008018;28;20474;-67
2022/12/22 12:03:52;;;;;;;5.70;4.80;;;19.20;39.70;;;;;;4979857;28;20459;-63
2022/12/22 12:06:32;;;;;;;4.60;4.10;;;19.20;39.70;;;;;;5013107;28;20463;-63
2022/12/22 12:09:25;;;;;;;5.03;3.80;;;19.20;39.70;;;;;;5011952;28;21786;-63
2022/12/22 12:12:08;;;;;;;4.17;3.80;;;19.20;39.60;;;;;;5011351;28;20465;-70
2022/12/22 12:14:42;;;;;;;3.87;3.57;;;19.20;39.70;;;;;;5009061;28;20442;-66
2022/12/22 12:17:27;;;;;;;3.93;3.60;;;19.20;39.70;;;;;;5005099;28;21069;-66
2022/12/22 12:20:20;;;;;;;4.20;3.90;;;19.20;39.70;;;;;;5006939;28;20460;-66
2022/12/22 12:23:12;;;;;;;4.03;3.53;;;19.20;40.40;;;;;;5008188;28;20447;-70
2022/12/22 12:25:48;;;;;;;4.43;3.93;;;19.20;39.70;;;;;;5012514;28;20463;-64
2022/12/22 12:28:39;;;;;;;3.13;2.93;;;19.20;39.70;;;;;;4998617;28;20469;-64
2022/12/22 12:31:08;;;;;;;4.13;3.83;;;19.20;39.80;;;;;;4996219;28;20567;-64
2022/12/22 12:33:48;;;;;;;4.20;3.30;;;19.20;39.80;;;;;;4992637;28;20451;-64
2022/12/22 12:36:30;;;;;;;3.40;3.20;;;19.20;39.70;;;;;;4994874;28;20487;-64
2022/12/22 12:39:13;;;;;;;3.23;3.03;;;19.20;39.70;;;;;;4995038;28;20890;-63
2022/12/22 12:41:44;;;;;;;3.40;3.10;;;19.20;39.70;;;;;;4994064;28;20795;-63
2022/12/22 12:44:12;;;;;;;3.50;3.20;;;19.20;39.70;;;;;;4992690;28;20434;-64
2022/12/22 12:46:51;;;;;;;3.73;3.10;;;19.20;39.70;;;;;;4993571;28;20492;-63
2022/12/22 12:49:35;;;;;;;3.00;2.80;;;19.20;39.70;;;;;;4992132;28;20468;-63
2022/12/22 12:52:03;;;;;;;3.73;3.30;;;19.20;39.70;;;;;;4988982;28;20517;-63
2022/12/22 12:54:28;;;;;;;2.70;2.50;;;19.20;39.80;;;;;;4984302;28;21297;-63
2022/12/22 12:57:26;;;;;;;5.43;2.80;;;19.20;39.70;;;;;;5001280;28;20453;-64
2022/12/22 12:59:55;;;;;;;2.57;2.43;;;19.20;39.70;;;;;;4985573;28;20308;-63
2022/12/22 13:02:26;;;;;;;2.47;2.27;;;19.20;39.70;;;;;;4995582;28;20452;-64
2022/12/22 13:05:10;;;;;;;3.30;3.00;;;19.20;39.70;;;;;;4997765;28;20599;-63
2022/12/22 13:08:03;;;;;;;2.50;2.30;;;19.20;39.70;;;;;;4997589;28;20447;-63
2022/12/22 13:10:30;;;;;;;3.23;2.50;;;19.20;39.70;;;;;;4996454;28;20439;-63
2022/12/22 13:12:57;;;;;;;3.10;2.90;;;19.20;39.70;;;;;;5004356;28;20541;-64
2022/12/22 13:15:25;;;;;;;2.47;2.27;;;19.20;39.70;;;;;;5000683;28;21059;-64
2022/12/22 13:17:51;;;;;;;2.80;2.60;;;19.20;39.70;;;;;;4995579;28;21711;-63
2022/12/22 13:20:45;;;;;;;3.20;2.60;;;19.20;39.70;;;;;;4997264;28;20505;-63
2022/12/22 13:23:14;;;;;;;2.37;2.17;;;19.20;39.70;;;;;;4988050;28;20377;-63
2022/12/22 13:26:01;;;;;;;2.70;2.50;;;19.30;39.90;;;;;;4998308;28;20447;-63
2022/12/22 13:28:26;;;;;;;2.40;2.20;;;19.20;39.60;;;;;;4990809;28;20475;-62
2022/12/22 13:31:05;;;;;;;2.63;2.43;;;19.30;39.80;;;;;;4995182;28;21492;-65
2022/12/22 13:33:36;;;;;;;2.87;2.43;;;19.30;39.80;;;;;;5001256;28;20787;-65
2022/12/22 13:36:03;;;;;;;2.07;1.90;;;19.20;39.70;;;;;;4999742;28;20447;-65
2022/12/22 13:38:35;;;;;;;4.23;2.40;;;19.20;39.70;;;;;;4999078;28;20489;-65
2022/12/22 13:41:23;;;;;;;2.37;2.17;;;19.20;39.80;;;;;;5002318;28;20467;-65
2022/12/22 13:44:02;;;;;;;2.20;2.10;;;19.30;39.80;;;;;;4997513;28;20443;-66
2022/12/22 13:46:29;;;;;;;2.20;2.00;;;19.30;39.90;;;;;;4993307;28;22235;-65
2022/12/22 13:48:56;;;;;;;2.50;2.30;;;19.20;39.70;;;;;;5000828;28;20434;-65
2022/12/22 13:51:25;;;;;;;2.20;2.00;;;19.20;39.80;;;;;;5005280;28;20501;-65
2022/12/22 13:53:57;;;;;;;2.03;1.90;;;19.20;39.80;;;;;;5006438;28;20480;-65
2022/12/22 13:56:47;;;;;;;2.20;1.90;;;19.30;39.80;;;;;;5004094;28;20510;-65
2022/12/22 13:59:28;;;;;;;2.13;1.97;;;19.20;39.70;;;;;;5003200;28;20870;-65
2022/12/22 14:02:02;;;;;;;1.87;1.70;;;19.20;39.70;;;;;;5010665;28;20480;-65
2022/12/22 14:04:29;;;;;;;2.03;1.93;;;19.20;39.80;;;;;;5008246;28;20479;-65
2022/12/22 14:06:55;;;;;;;2.30;2.00;;;19.20;39.80;;;;;;5006272;28;20741;-65
2022/12/22 14:09:25;;;;;;;1.90;1.80;;;19.20;39.70;;;;;;5008867;28;20537;-65
2022/12/22 14:11:51;;;;;;;2.00;1.90;;;19.20;39.80;;;;;;5003244;28;20468;-65
2022/12/22 14:14:20;;;;;;;1.70;1.60;;;19.20;39.70;;;;;;5007222;28;21869;-64
2022/12/22 14:16:48;;;;;;;1.73;1.63;;;19.20;39.70;;;;;;5006999;28;20331;-68
2022/12/22 14:19:15;;;;;;;2.07;1.93;;;19.20;39.80;;;;;;5006144;28;20456;-65
2022/12/22 14:21:44;;;;;;;3.10;1.80;;;19.20;39.80;;;;;;5007144;28;20451;-66
2022/12/22 14:24:18;;;;;;;1.83;1.73;;;19.20;39.80;;;;;;5007598;28;20422;-65
2022/12/22 14:26:44;;;;;;;2.03;1.87;;;19.20;39.80;;;;;;5012178;28;20488;-65
2022/12/22 14:29:15;;;;;;;2.00;1.90;;;19.20;39.80;;;;;;5012563;28;20431;-65
2022/12/22 14:32:01;;;;;;;1.70;1.60;;;19.20;39.80;;;;;;5011377;28;20514;-65
2022/12/22 14:34:33;;;;;;;1.80;1.70;;;19.20;39.80;;;;;;5010327;28;20555;-65
2022/12/22 14:37:00;;;;;;;2.27;2.07;;;19.20;39.80;;;;;;5010045;28;20472;-67
2022/12/22 14:39:31;;;;;;;1.67;1.57;;;19.20;39.80;;;;;;5007280;28;20450;-65
2022/12/22 14:42:04;;;;;;;1.80;1.70;;;19.20;39.90;;;;;;5006386;28;20436;-64
2022/12/22 14:44:42;;;;;;;2.07;1.87;;;19.20;39.80;;;;;;5011889;28;20435;-65
2022/12/22 14:47:19;;;;;;;1.83;1.73;;;19.20;39.90;;;;;;5010442;28;20470;-64
2022/12/22 14:49:52;;;;;;;1.50;1.40;;;19.20;39.90;;;;;;5009270;28;20494;-65
2022/12/22 14:52:49;;;;;;;2.27;1.90;;;19.20;39.90;;;;;;5006761;28;20751;-64
2022/12/22 14:55:33;;;;;;;1.60;1.50;;;19.20;39.90;;;;;;5005647;28;20443;-64
2022/12/22 14:58:09;;;;;;;1.90;1.80;;;19.20;39.90;;;;;;5005265;28;20770;-64
2022/12/22 15:00:40;;;;;;;1.50;1.40;;;19.20;39.90;;;;;;5011355;28;20437;-64
2022/12/22 15:03:30;;;;;;;1.77;1.67;;;19.20;39.90;;;;;;5004024;28;20621;-65
2022/12/22 15:06:16;;;;;;;1.73;1.60;;;19.20;39.90;;;;;;4998709;28;20605;-65
2022/12/22 15:08:42;;;;;;;1.47;1.37;;;19.20;39.90;;;;;;4995272;28;20478;-65
2022/12/22 15:11:10;;;;;;;1.60;1.50;;;19.20;39.90;;;;;;5002669;28;20488;-64
2022/12/22 15:13:35;;;;;;;1.67;1.40;;;19.20;39.90;;;;;;5005312;28;20573;-64
2022/12/22 15:16:02;;;;;;;1.50;1.40;;;19.20;39.90;;;;;;4998820;28;21049;-64
2022/12/22 15:18:28;;;;;;;1.60;1.50;;;19.20;39.90;;;;;;5000074;28;20594;-64
2022/12/22 15:20:55;;;;;;;1.77;1.67;;;19.20;40.00;;;;;;4999206;28;20495;-64
2022/12/22 15:23:20;;;;;;;1.70;1.60;;;19.20;39.90;;;;;;5002349;28;20525;-64
2022/12/22 15:25:46;;;;;;;1.77;1.67;;;19.20;39.90;;;;;;5001790;28;20454;-64
2022/12/22 15:28:12;;;;;;;1.73;1.63;;;19.20;39.90;;;;;;5003500;28;20710;-65
2022/12/22 15:30:37;;;;;;;1.77;1.67;;;19.20;39.90;;;;;;5006395;28;20605;-62
2022/12/22 15:33:03;;;;;;;1.90;1.77;;;19.20;39.90;;;;;;4989879;28;20507;-62
2022/12/22 15:35:33;;;;;;;1.63;1.53;;;19.20;39.90;;;;;;4981854;28;20234;-63
2022/12/22 15:38:00;;;;;;;1.50;1.40;;;19.20;39.90;;;;;;5008903;28;20227;-66
2022/12/22 15:40:27;;;;;;;1.40;1.30;;;19.20;40.00;;;;;;5012370;28;20625;-62
2022/12/22 15:42:52;;;;;;;1.50;1.40;;;19.20;39.90;;;;;;5012307;28;20445;-64
2022/12/22 15:45:20;;;;;;;1.50;1.40;;;19.20;40.00;;;;;;5006574;28;20431;-64
2022/12/22 15:47:49;;;;;;;1.73;1.23;;;19.20;40.00;;;;;;5011033;28;20272;-64
2022/12/22 15:50:18;;;;;;;2.13;1.40;;;19.20;39.90;;;;;;5001926;28;20456;-65
2022/12/22 15:52:53;;;;;;;1.73;1.60;;;19.20;39.90;;;;;;5011236;28;20510;-64
2022/12/22 15:55:20;;;;;;;1.53;1.43;;;19.20;39.90;;;;;;5012053;28;20452;-64
2022/12/22 15:57:49;;;;;;;1.50;1.40;;;19.20;39.90;;;;;;5007752;28;20435;-64
2022/12/22 16:00:16;;;;;;;1.60;1.50;;;19.20;39.90;;;;;;5003887;28;20905;-64
2022/12/22 16:02:42;;;;;;;1.53;1.43;;;19.20;39.90;;;;;;5009524;28;20427;-64
2022/12/22 16:05:09;;;;;;;2.20;1.27;;;19.20;39.90;;;;;;5009723;28;20543;-64
2022/12/22 16:07:35;;;;;;;1.50;1.40;;;19.20;39.90;;;;;;5011261;28;20218;-64
2022/12/22 16:10:03;;;;;;;1.40;1.30;;;19.20;39.90;;;;;;5007719;28;20418;-64
2022/12/22 16:12:29;;;;;;;1.43;1.33;;;19.20;39.90;;;;;;5001611;28;20456;-64
2022/12/22 16:14:56;;;;;;;1.60;1.50;;;19.20;39.90;;;;;;5008014;28;20465;-63
2022/12/22 16:17:26;;;;;;;1.50;1.40;;;19.20;39.90;;;;;;5010749;28;20474;-64
2022/12/22 16:19:52;;;;;;;2.57;1.50;;;19.20;39.90;;;;;;5006916;28;20430;-64
2022/12/22 16:22:23;;;;;;;3.30;1.70;;;19.20;39.90;;;;;;5004322;28;21061;-65
2022/12/22 16:24:49;;;;;;;1.63;1.43;;;19.30;40.00;;;;;;5002869;28;20221;-64
2022/12/22 16:27:15;;;;;;;2.60;1.70;;;19.20;39.90;;;;;;5007367;28;20522;-65
2022/12/22 16:29:47;;;;;;;1.57;1.47;;;19.20;39.90;;;;;;4996577;28;20423;-64
2022/12/22 16:32:30;;;;;;;1.30;1.20;;;19.30;39.90;;;;;;5009109;28;20357;-65
2022/12/22 16:35:14;;;;;;;1.93;1.83;;;19.30;39.90;;;;;;4992476;28;20862;-65
2022/12/22 16:37:40;;;;;;;1.47;1.37;;;19.30;39.90;;;;;;5008775;28;21552;-65
2022/12/22 16:40:06;;;;;;;1.60;1.50;;;19.30;40.70;;;;;;5008707;28;20452;-64
2022/12/22 16:42:31;;;;;;;6.13;1.53;;;19.30;39.90;;;;;;5012710;28;20559;-64
2022/12/22 16:44:57;;;;;;;1.60;1.50;;;19.30;39.90;;;;;;5010332;28;20981;-64
2022/12/22 16:47:30;;;;;;;1.50;1.40;;;19.30;39.80;;;;;;5012138;28;20222;-65
2022/12/22 16:49:55;;;;;;;2.13;2.03;;;19.30;39.90;;;;;;5011502;28;20872;-64
2022/12/22 16:52:25;;;;;;;1.30;1.20;;;19.30;39.80;;;;;;5009262;28;20444;-64
2022/12/22 16:54:51;;;;;;;1.80;1.30;;;19.30;39.90;;;;;;5010511;28;20225;-64
2022/12/22 16:57:16;;;;;;;1.20;1.10;;;19.30;39.90;;;;;;5011369;28;20480;-64
2022/12/22 16:59:42;;;;;;;1.50;1.40;;;19.30;39.90;;;;;;5013458;28;20244;-65
2022/12/22 17:02:29;;;;;;;1.30;1.20;;;19.30;39.90;;;;;;5008002;28;21001;-64
2022/12/22 17:04:59;;;;;;;1.60;1.50;;;19.30;39.80;;;;;;5007787;28;20223;-65
2022/12/22 17:07:25;;;;;;;1.50;1.40;;;19.30;39.80;;;;;;5002728;28;20582;-65
2022/12/22 17:09:54;;;;;;;1.40;1.30;;;19.30;39.80;;;;;;5005470;28;20450;-65
2022/12/22 17:12:24;;;;;;;1.80;1.67;;;19.30;39.80;;;;;;5006816;28;21159;-65
2022/12/22 17:14:50;;;;;;;2.07;1.50;;;19.30;39.90;;;;;;5003795;28;20466;-65
2022/12/22 17:17:18;;;;;;;1.70;1.60;;;19.30;39.90;;;;;;5004308;28;20487;-65
2022/12/22 17:19:43;;;;;;;1.53;1.20;;;19.40;39.90;;;;;;5001604;28;20431;-65
2022/12/22 17:22:27;;;;;;;1.30;1.20;;;19.30;39.80;;;;;;5004354;28;20840;-65
2022/12/22 17:24:56;;;;;;;1.47;1.37;;;19.30;39.80;;;;;;5005542;28;20230;-65
2022/12/22 17:27:26;;;;;;;1.37;1.27;;;19.30;39.80;;;;;;5008350;28;20806;-65
2022/12/22 17:29:52;;;;;;;1.60;1.50;;;19.30;39.90;;;;;;5012197;28;20435;-65
2022/12/22 17:32:19;;;;;;;5.43;1.30;;;19.30;39.80;;;;;;5008399;28;21079;-66
2022/12/22 17:34:45;;;;;;;1.37;1.20;;;19.30;39.80;;;;;;5005697;28;20463;-65
2022/12/22 17:37:20;;;;;;;3.00;1.30;;;19.40;39.80;;;;;;5013103;28;21123;-65
2022/12/22 17:39:48;;;;;;;3.43;1.40;;;19.40;39.80;;;;;;5007536;28;20230;-65
2022/12/22 17:42:20;;;;;;;1.40;1.30;;;19.40;39.80;;;;;;5007102;28;20443;-65
2022/12/22 17:44:45;;;;;;;1.37;1.27;;;19.40;39.70;;;;;;5003523;28;21401;-66
2022/12/22 17:47:13;;;;;;;1.87;1.67;;;19.40;39.70;;;;;;5008656;28;20543;-66
2022/12/22 17:49:39;;;;;;;1.33;1.23;;;19.40;39.60;;;;;;5010802;28;20218;-65
2022/12/22 17:52:04;;;;;;;1.40;1.30;;;19.40;39.60;;;;;;5001648;28;20976;-65
2022/12/22 17:54:30;;;;;;;1.30;1.20;;;19.40;40.40;;;;;;5010316;28;20231;-65
2022/12/22 17:57:01;;;;;;;1.30;1.20;;;19.50;39.70;;;;;;5010471;28;20222;-65
2022/12/22 17:59:27;;;;;;;1.20;1.10;;;19.50;39.70;;;;;;5002909;28;20218;-65
2022/12/22 18:01:53;;;;;;;1.63;1.10;;;19.50;39.50;;;;;;5005162;28;20491;-65
2022/12/22 18:04:18;;;;;;;1.27;1.17;;;19.50;39.60;;;;;;5007696;28;20578;-64
2022/12/22 18:06:44;;;;;;;1.43;1.33;;;19.50;39.50;;;;;;5005835;28;20222;-65
2022/12/22 18:09:19;;;;;;;1.30;1.20;;;19.50;39.50;;;;;;5016366;28;20222;-65
2022/12/22 18:11:45;;;;;;;1.30;1.20;;;19.50;39.50;;;;;;5009991;28;20226;-65
2022/12/22 18:14:12;;;;;;;1.20;1.10;;;19.50;39.50;;;;;;5008528;28;20460;-65
2022/12/22 18:16:37;;;;;;;1.23;1.10;;;19.50;39.50;;;;;;5007352;28;20712;-65
2022/12/22 18:19:04;;;;;;;1.53;1.10;;;19.50;39.50;;;;;;5009514;28;20419;-65
2022/12/22 18:21:30;;;;;;;1.33;1.23;;;19.50;39.50;;;;;;5002997;28;20219;-65
2022/12/22 18:23:55;;;;;;;1.30;1.20;;;19.50;39.60;;;;;;5008052;28;22794;-66
2022/12/22 18:26:25;;;;;;;1.20;1.10;;;19.50;39.50;;;;;;5009023;28;20258;-65
2022/12/22 18:28:51;;;;;;;1.30;1.20;;;19.50;39.50;;;;;;5007590;28;20287;-65
2022/12/22 18:31:17;;;;;;;1.53;1.43;;;19.50;39.60;;;;;;5005004;28;20477;-64
2022/12/22 18:33:42;;;;;;;1.40;1.30;;;19.50;39.60;;;;;;5015395;28;21037;-64
2022/12/22 18:36:18;;;;;;;1.63;1.43;;;19.50;39.60;;;;;;5019894;28;20238;-64
2022/12/22 18:38:45;;;;;;;1.53;1.43;;;19.50;39.60;;;;;;5019320;28;20316;-65
2022/12/22 18:41:17;;;;;;;1.40;1.30;;;19.50;39.70;;;;;;5014026;28;20460;-64
2022/12/22 18:43:43;;;;;;;1.20;1.10;;;19.50;39.70;;;;;;5016066;28;20460;-65
2022/12/22 18:46:10;;;;;;;1.30;1.20;;;19.50;39.70;;;;;;5012357;28;20934;-65
2022/12/22 18:48:35;;;;;;;1.20;1.10;;;19.50;39.80;;;;;;5010137;28;20338;-64
2022/12/22 18:51:01;;;;;;;1.40;1.23;;;19.50;39.80;;;;;;5006745;28;20546;-64
2022/12/22 18:53:29;;;;;;;1.60;1.20;;;19.50;39.80;;;;;;5008319;28;20230;-64